createdAt,value
2022-11-22T00:00:49.267Z,98056.03
2022-11-22T00:03:18.741Z,98053.34
2022-11-22T00:05:46.351Z,98044.34
2022-11-22T00:08:14.092Z,98050.69
2022-11-22T00:10:41.864Z,98054.31
2022-11-22T00:13:09.816Z,98049.00
2022-11-22T00:15:37.557Z,98040.00
2022-11-22T00:18:05.289Z,98043.00
2022-11-22T00:20:34.698Z,98031.63
2022-11-22T00:23:02.611Z,98033.84
2022-11-22T00:25:30.200Z,98027.47
2022-11-22T00:27:57.763Z,98018.47
2022-11-22T00:30:25.392Z,98016.06
2022-11-22T00:32:53.085Z,98014.41
2022-11-22T00:35:20.747Z,98006.47
2022-11-22T00:37:49.754Z,97999.50
2022-11-22T00:40:17.673Z,97996.47
2022-11-22T00:42:45.319Z,97992.78
2022-11-22T00:45:13.006Z,97995.19
2022-11-22T00:47:40.555Z,97990.47
2022-11-22T00:50:08.834Z,97985.22
2022-11-22T00:52:36.427Z,97984.19
2022-11-22T00:55:06.678Z,97979.03
2022-11-22T00:57:34.321Z,97970.44
2022-11-22T01:00:01.998Z,97982.84
2022-11-22T01:02:29.567Z,97984.13
2022-11-22T01:04:57.192Z,97990.63
2022-11-22T01:07:24.790Z,97983.34
2022-11-22T01:09:52.464Z,97991.53
2022-11-22T01:12:21.377Z,97991.16
2022-11-22T01:14:48.962Z,97997.38
2022-11-22T01:17:16.543Z,97995.34
2022-11-22T01:19:44.107Z,97991.03
2022-11-22T01:22:11.676Z,97989.63
2022-11-22T01:24:39.320Z,97988.59
2022-11-22T01:27:06.857Z,97989.06
2022-11-22T01:29:35.729Z,97990.84
2022-11-22T01:32:03.274Z,98009.47
2022-11-22T01:34:30.859Z,98005.81
2022-11-22T01:36:58.389Z,97989.91
2022-11-22T01:39:26.096Z,97996.38
2022-11-22T01:41:53.647Z,98022.66
2022-11-22T01:44:24.118Z,98025.81
2022-11-22T01:46:55.999Z,98024.78
2022-11-22T01:49:30.304Z,98030.25
2022-11-22T01:52:03.060Z,98038.09
2022-11-22T01:54:34.848Z,98030.31
2022-11-22T01:57:06.328Z,98028.22
2022-11-22T01:59:36.580Z,98028.56
2022-11-22T02:02:07.349Z,98026.50
2022-11-22T02:04:37.892Z,98035.97
2022-11-22T02:07:13.540Z,98023.56
2022-11-22T02:09:43.305Z,98029.47
2022-11-22T02:12:12.967Z,98041.75
2022-11-22T02:14:41.521Z,98039.50
2022-11-22T02:17:10.886Z,98021.34
2022-11-22T02:19:44.409Z,98023.97
2022-11-22T02:22:26.239Z,98045.69
2022-11-22T02:24:58.372Z,98035.31
2022-11-22T02:27:27.347Z,98027.44
2022-11-22T02:29:54.985Z,98027.06
2022-11-22T02:32:22.714Z,98035.31
2022-11-22T02:34:51.765Z,98033.91
2022-11-22T02:37:23.634Z,98048.78
2022-11-22T02:39:56.969Z,98051.16
2022-11-22T02:42:27.039Z,98053.25
2022-11-22T02:44:54.669Z,98064.97
2022-11-22T02:47:22.286Z,98063.50
2022-11-22T02:49:49.859Z,98069.38
2022-11-22T02:52:18.259Z,98069.81
2022-11-22T02:54:45.841Z,98077.75
2022-11-22T02:57:13.751Z,98076.44
2022-11-22T02:59:42.683Z,98065.78
2022-11-22T03:02:10.245Z,98060.94
2022-11-22T03:04:37.887Z,98070.06
2022-11-22T03:07:05.546Z,98073.31
2022-11-22T03:09:33.535Z,98061.56
2022-11-22T03:12:01.247Z,98074.44
2022-11-22T03:14:28.945Z,98078.28
2022-11-22T03:16:57.825Z,98074.00
2022-11-22T03:19:25.405Z,98083.53
2022-11-22T03:21:53.246Z,98084.34
2022-11-22T03:24:20.937Z,98078.44
2022-11-22T03:26:49.777Z,98077.84
2022-11-22T03:29:17.651Z,98082.50
2022-11-22T03:31:45.232Z,98084.50
2022-11-22T03:34:15.034Z,98079.97
2022-11-22T03:36:42.731Z,98084.06
2022-11-22T03:39:10.434Z,98091.97
2022-11-22T03:41:38.260Z,98099.84
2022-11-22T03:44:07.216Z,98099.31
2022-11-22T03:46:34.827Z,98105.09
2022-11-22T03:49:02.429Z,98103.97
2022-11-22T03:51:31.402Z,98098.28
2022-11-22T03:53:59.223Z,98102.56
2022-11-22T03:56:26.927Z,98104.66
2022-11-22T03:58:54.535Z,98106.22
2022-11-22T04:01:22.251Z,98110.19
2022-11-22T04:03:50.123Z,98109.28
2022-11-22T04:06:17.663Z,98108.13
2022-11-22T04:08:46.591Z,98107.38
2022-11-22T04:11:14.381Z,98120.94
2022-11-22T04:13:59.521Z,98114.56
2022-11-22T04:16:27.223Z,98115.09
2022-11-22T04:18:54.775Z,98110.28
2022-11-22T04:21:36.711Z,98114.41
2022-11-22T04:24:24.879Z,98114.78
2022-11-22T04:26:52.779Z,98113.47
2022-11-22T04:29:21.004Z,98114.09
2022-11-22T04:32:08.025Z,98109.53
2022-11-22T04:34:36.272Z,98106.94
2022-11-22T04:37:04.398Z,98116.28
2022-11-22T04:39:33.612Z,98118.63
2022-11-22T04:42:19.060Z,98113.81
2022-11-22T04:44:50.596Z,98120.19
2022-11-22T04:47:33.614Z,98126.78
2022-11-22T04:50:01.355Z,98129.38
2022-11-22T04:52:46.557Z,98124.13
2022-11-22T04:55:15.606Z,98128.13
2022-11-22T04:57:43.217Z,98125.69
2022-11-22T05:00:11.790Z,98129.00
2022-11-22T05:02:39.319Z,98124.47
2022-11-22T05:05:10.031Z,98133.06
2022-11-22T05:07:37.672Z,98139.75
2022-11-22T05:10:06.157Z,98138.34
2022-11-22T05:12:35.162Z,98141.09
2022-11-22T05:15:02.731Z,98147.75
2022-11-22T05:17:30.310Z,98151.31
2022-11-22T05:19:57.885Z,98150.50
2022-11-22T05:22:41.871Z,98146.16
2022-11-22T05:25:10.425Z,98151.66
2022-11-22T05:27:39.844Z,98144.31
2022-11-22T05:30:08.601Z,98154.34
2022-11-22T05:32:36.521Z,98155.28
2022-11-22T05:35:04.400Z,98153.75
2022-11-22T05:37:32.019Z,98155.66
2022-11-22T05:39:59.636Z,98151.13
2022-11-22T05:42:27.161Z,98169.13
2022-11-22T05:44:56.465Z,98161.06
2022-11-22T05:47:24.101Z,98168.88
2022-11-22T05:49:51.799Z,98169.56
2022-11-22T05:52:19.449Z,98176.28
2022-11-22T05:54:47.106Z,98168.31
2022-11-22T05:57:14.670Z,98170.22
2022-11-22T05:59:44.627Z,98176.91
2022-11-22T06:02:13.662Z,98176.56
2022-11-22T06:04:41.342Z,98191.22
2022-11-22T06:07:10.416Z,98183.28
2022-11-22T06:09:38.518Z,98187.88
2022-11-22T06:12:06.488Z,98191.31
2022-11-22T06:14:36.328Z,98204.03
2022-11-22T06:17:07.646Z,98211.00
2022-11-22T06:19:37.029Z,98205.31
2022-11-22T06:22:04.589Z,98211.53
2022-11-22T06:24:32.204Z,98214.50
2022-11-22T06:26:59.900Z,98231.06
2022-11-22T06:29:27.729Z,98233.69
2022-11-22T06:32:03.164Z,98234.16
2022-11-22T06:34:31.589Z,98227.06
2022-11-22T06:37:00.770Z,98233.44
2022-11-22T06:39:28.521Z,98235.72
2022-11-22T06:41:56.376Z,98242.91
2022-11-22T06:44:23.981Z,98237.78
2022-11-22T06:46:51.746Z,98241.06
2022-11-22T06:49:19.799Z,98244.34
2022-11-22T06:51:54.927Z,98251.06
2022-11-22T06:54:24.024Z,98247.78
2022-11-22T06:56:51.939Z,98248.81
2022-11-22T06:59:20.271Z,98256.78
2022-11-22T07:01:48.026Z,98255.19
2022-11-22T07:04:15.842Z,98268.47
2022-11-22T07:06:44.131Z,98267.66
2022-11-22T07:09:12.600Z,98270.56
2022-11-22T07:11:41.884Z,98271.59
2022-11-22T07:14:14.485Z,98264.81
2022-11-22T07:16:43.385Z,98280.19
2022-11-22T07:19:11.016Z,98273.44
2022-11-22T07:21:38.700Z,98277.09
2022-11-22T07:24:08.112Z,98282.25
2022-11-22T07:26:35.760Z,98287.19
2022-11-22T07:29:04.887Z,98285.94
2022-11-22T07:31:32.482Z,98284.44
2022-11-22T07:34:00.613Z,98296.44
2022-11-22T07:36:29.412Z,98293.91
2022-11-22T07:38:57.483Z,98290.66
2022-11-22T07:41:25.855Z,98298.41
2022-11-22T07:43:53.904Z,98295.38
2022-11-22T07:46:26.135Z,98303.00
2022-11-22T07:48:56.567Z,98311.34
2022-11-22T07:51:24.715Z,98312.78
2022-11-22T07:53:52.690Z,98308.44
2022-11-22T07:56:22.507Z,98311.03
2022-11-22T07:58:50.116Z,98323.69
2022-11-22T08:01:20.900Z,98322.06
2022-11-22T08:03:53.172Z,98324.97
2022-11-22T08:06:20.788Z,98337.75
2022-11-22T08:08:48.427Z,98341.75
2022-11-22T08:11:16.029Z,98333.75
2022-11-22T08:13:44.659Z,98337.94
2022-11-22T08:16:16.988Z,98342.00
2022-11-22T08:18:48.670Z,98339.13
2022-11-22T08:21:19.557Z,98337.81
2022-11-22T08:23:48.865Z,98334.00
2022-11-22T08:26:18.734Z,98334.41
2022-11-22T08:28:46.483Z,98341.84
2022-11-22T08:31:16.450Z,98352.16
2022-11-22T08:33:44.113Z,98357.09
2022-11-22T08:36:12.025Z,98357.78
2022-11-22T08:38:40.963Z,98360.22
2022-11-22T08:41:08.666Z,98363.09
2022-11-22T08:43:36.280Z,98361.84
2022-11-22T08:46:04.589Z,98376.81
2022-11-22T08:48:33.937Z,98364.59
2022-11-22T08:51:03.466Z,98361.97
2022-11-22T08:53:33.480Z,98359.06
2022-11-22T08:56:03.300Z,98355.94
2022-11-22T08:58:31.589Z,98369.28
2022-11-22T09:01:04.861Z,98360.78
2022-11-22T09:03:32.498Z,98367.00
2022-11-22T09:09:02.912Z,98363.88
2022-11-22T09:11:39.216Z,98364.00
2022-11-22T09:14:07.057Z,98364.91
2022-11-22T09:16:34.701Z,98361.50
2022-11-22T09:19:02.269Z,98358.53
2022-11-22T09:21:29.923Z,98350.47
2022-11-22T09:23:57.602Z,98352.56
2022-11-22T09:26:25.620Z,98356.56
2022-11-22T09:28:57.758Z,98356.38
2022-11-22T09:31:25.745Z,98358.06
2022-11-22T09:33:53.752Z,98363.84
2022-11-22T09:36:23.687Z,98366.97
2022-11-22T09:38:52.757Z,98358.84
2022-11-22T09:42:12.758Z,98372.22
2022-11-22T09:45:04.702Z,98370.25
2022-11-22T09:47:39.790Z,98365.91
2022-11-22T09:50:15.056Z,98371.84
2022-11-22T09:52:49.736Z,98374.44
2022-11-22T09:55:24.897Z,98365.41
2022-11-22T09:58:03.265Z,98351.09
2022-11-22T10:00:32.490Z,98361.94
2022-11-22T10:03:06.697Z,98367.66
2022-11-22T10:05:49.945Z,98356.81
2022-11-22T10:08:29.197Z,98366.31
2022-11-22T10:10:59.539Z,98351.69
2022-11-22T10:13:34.460Z,98348.88
2022-11-22T10:16:11.540Z,98338.06
2022-11-22T10:18:44.391Z,98329.31
2022-11-22T10:21:14.107Z,98331.44
2022-11-22T10:23:42.990Z,98334.84
2022-11-22T10:26:22.996Z,98330.16
2022-11-22T10:29:01.114Z,98331.41
2022-11-22T10:31:40.098Z,98327.41
2022-11-22T10:34:17.811Z,98324.97
2022-11-22T10:36:50.469Z,98333.69
2022-11-22T10:39:35.015Z,98325.13
2022-11-22T10:42:47.145Z,98340.50
2022-11-22T10:45:19.883Z,98345.38
2022-11-22T10:47:59.934Z,98340.16
2022-11-22T10:50:41.522Z,98352.56
2022-11-22T10:53:17.491Z,98349.94
2022-11-22T10:55:56.830Z,98349.16
2022-11-22T10:58:37.612Z,98350.38
2022-11-22T11:01:14.592Z,98345.13
2022-11-22T11:03:45.207Z,98337.19
2022-11-22T11:06:29.461Z,98336.72
2022-11-22T11:10:02.791Z,98341.16
2022-11-22T11:11:53.756Z,98347.03
2022-11-22T11:14:29.950Z,98344.50
2022-11-22T11:16:58.708Z,98337.72
2022-11-22T11:19:31.402Z,98341.97
2022-11-22T11:22:03.590Z,98331.31
2022-11-22T11:24:32.350Z,98331.00
2022-11-22T11:27:01.495Z,98330.34
2022-11-22T11:29:42.560Z,98331.88
2022-11-22T11:32:15.333Z,98327.69
2022-11-22T11:34:57.132Z,98333.50
2022-11-22T11:37:27.691Z,98336.53
2022-11-22T11:39:55.242Z,98328.97
2022-11-22T11:42:31.206Z,98325.94
2022-11-22T11:45:27.856Z,98324.28
2022-11-22T11:47:55.688Z,98319.53
2022-11-22T11:50:27.680Z,98328.41
2022-11-22T11:52:57.793Z,98319.56
2022-11-22T11:55:26.417Z,98322.56
2022-11-22T11:57:54.759Z,98316.50
2022-11-22T12:00:27.182Z,98317.44
2022-11-22T12:03:00.342Z,98308.81
2022-11-22T12:05:32.991Z,98306.84
2022-11-22T12:08:02.157Z,98316.81
2022-11-22T12:10:34.544Z,98310.41
2022-11-22T12:13:07.959Z,98310.19
2022-11-22T12:15:44.799Z,98304.13
2022-11-22T12:18:28.922Z,98311.22
2022-11-22T12:21:09.560Z,98295.75
2022-11-22T12:23:54.044Z,98295.91
2022-11-22T12:26:35.279Z,98281.84
2022-11-22T12:29:06.133Z,98278.22
2022-11-22T12:31:45.141Z,98281.84
2022-11-22T12:34:18.335Z,98287.53
2022-11-22T12:36:59.430Z,98279.84
2022-11-22T12:39:31.605Z,98278.38
2022-11-22T12:42:04.199Z,98293.13
2022-11-22T12:44:38.638Z,98288.84
2022-11-22T12:47:10.459Z,98284.72
2022-11-22T12:52:35.764Z,98279.84
2022-11-22T12:55:09.905Z,98290.47
2022-11-22T12:57:44.505Z,98282.28
2022-11-22T13:00:18.301Z,98276.13
2022-11-22T13:02:59.222Z,98271.72
2022-11-22T13:05:31.228Z,98270.91
2022-11-22T13:08:14.982Z,98271.72
2022-11-22T13:10:48.901Z,98265.31
2022-11-22T13:13:23.777Z,98269.72
2022-11-22T13:15:55.336Z,98273.44
2022-11-22T13:18:26.844Z,98274.16
2022-11-22T13:21:06.624Z,98263.94
2022-11-22T13:23:55.244Z,98256.34
2022-11-22T13:26:33.623Z,98265.91
2022-11-22T13:29:05.286Z,98246.94
2022-11-22T13:31:37.955Z,98259.75
2022-11-22T13:34:26.360Z,98246.59
2022-11-22T13:36:57.878Z,98244.25
2022-11-22T13:39:31.251Z,98247.28
2022-11-22T13:42:06.154Z,98261.59
2022-11-22T13:44:52.204Z,98256.69
2022-11-22T13:47:37.890Z,98243.44
2022-11-22T13:50:59.459Z,98254.03
2022-11-22T13:53:31.729Z,98263.09
2022-11-22T13:56:39.805Z,98255.53
2022-11-22T13:59:16.281Z,98251.81
2022-11-22T14:01:59.813Z,98252.53
2022-11-22T14:04:36.257Z,98246.81
2022-11-22T14:07:07.024Z,98249.22
2022-11-22T14:09:39.951Z,98244.59
2022-11-22T14:12:26.163Z,98249.34
2022-11-22T14:15:12.699Z,98248.13
2022-11-22T14:17:48.428Z,98230.00
2022-11-22T14:20:30.969Z,98232.56
2022-11-22T14:23:04.223Z,98237.09
2022-11-22T14:25:47.855Z,98240.50
2022-11-22T14:28:37.723Z,98245.59
2022-11-22T14:31:14.801Z,98248.59
2022-11-22T14:34:20.166Z,98248.50
2022-11-22T14:37:27.622Z,98249.50
2022-11-22T14:40:16.835Z,98246.16
2022-11-22T14:42:57.122Z,98243.50
2022-11-22T14:45:36.790Z,98241.16
2022-11-22T14:48:13.072Z,98245.13
2022-11-22T14:50:45.620Z,98263.91
2022-11-22T14:53:22.653Z,98255.44
2022-11-22T14:55:53.354Z,98264.13
2022-11-22T14:58:27.467Z,98265.72
2022-11-22T15:01:26.351Z,98270.59
2022-11-22T15:09:10.827Z,98272.25
2022-11-22T15:09:13.540Z,98269.75
2022-11-22T15:10:31.265Z,98269.41
2022-11-22T15:13:23.382Z,98273.69
2022-11-22T15:59:11.898Z,98339.22
2022-11-22T16:01:44.446Z,98344.16
2022-11-22T16:04:25.017Z,98350.03
2022-11-22T16:06:53.799Z,98350.03
2022-11-22T16:09:28.368Z,98358.94
2022-11-22T16:12:01.651Z,98357.06
2022-11-22T16:14:57.102Z,98363.69
2022-11-22T16:17:29.427Z,98363.59
2022-11-22T16:20:27.035Z,98363.50
2022-11-22T16:23:26.229Z,98362.63
2022-11-22T16:26:00.785Z,98364.25
2022-11-22T16:28:35.068Z,98360.84
2022-11-22T16:31:17.238Z,98354.63
2022-11-22T16:33:45.435Z,98370.94
2022-11-22T16:36:14.682Z,98365.59
2022-11-22T16:38:42.801Z,98374.25
2022-11-22T16:41:19.013Z,98378.19
2022-11-22T16:43:49.270Z,98371.69
2022-11-22T16:46:16.898Z,98364.03
2022-11-22T16:48:46.027Z,98365.91
2022-11-22T16:51:15.898Z,98364.41
2022-11-22T16:53:45.601Z,98367.97
2022-11-22T16:56:19.469Z,98364.50
2022-11-22T16:58:47.459Z,98377.66
2022-11-22T17:01:17.062Z,98385.03
2022-11-22T17:03:47.822Z,98387.91
2022-11-22T17:06:18.941Z,98390.88
2022-11-22T17:08:46.990Z,98396.53
2022-11-22T17:11:18.601Z,98395.09
2022-11-22T17:13:49.052Z,98393.84
2022-11-22T17:16:18.689Z,98397.41
2022-11-22T17:18:49.779Z,98401.09
2022-11-22T17:21:24.765Z,98397.91
2022-11-22T17:23:53.036Z,98403.28
2022-11-22T17:26:22.283Z,98406.13
2022-11-22T17:28:57.293Z,98403.09
2022-11-22T17:31:25.089Z,98404.50
2022-11-22T17:33:53.955Z,98407.16
2022-11-22T17:36:26.458Z,98413.69
2022-11-22T17:38:54.131Z,98411.69
2022-11-22T17:41:23.969Z,98413.38
2022-11-22T17:43:52.699Z,98425.63
2022-11-22T17:46:20.601Z,98421.09
2022-11-22T17:48:52.127Z,98427.28
2022-11-22T17:51:19.974Z,98430.84
2022-11-22T17:53:47.859Z,98436.88
2022-11-22T17:56:17.460Z,98434.81
2022-11-22T17:58:46.838Z,98438.69
2022-11-22T18:01:16.012Z,98431.56
2022-11-22T18:03:45.120Z,98428.84
2022-11-22T18:06:13.996Z,98433.72
2022-11-22T18:08:46.711Z,98434.63
2022-11-22T18:11:15.545Z,98438.31
2022-11-22T18:13:44.226Z,98444.19
2022-11-22T18:16:15.524Z,98436.19
2022-11-22T18:18:59.520Z,98434.22
2022-11-22T18:21:29.011Z,98436.06
2022-11-22T18:23:57.851Z,98443.63
2022-11-22T18:26:41.685Z,98442.94
2022-11-22T18:32:04.816Z,98446.88
2022-11-22T18:34:33.530Z,98442.34
2022-11-22T18:37:03.492Z,98451.44
2022-11-22T18:39:34.260Z,98445.69
2022-11-22T18:42:02.498Z,98451.16
2022-11-22T18:44:30.176Z,98454.59
2022-11-22T18:46:57.896Z,98462.84
2022-11-22T18:49:27.080Z,98466.31
2022-11-22T18:51:55.506Z,98463.69
2022-11-22T18:54:23.247Z,98472.13
2022-11-22T18:56:50.921Z,98479.16
2022-11-22T18:59:18.865Z,98464.28
2022-11-22T19:01:47.117Z,98469.63
2022-11-22T19:04:17.056Z,98457.66
2022-11-22T19:06:46.247Z,98471.81
2022-11-22T19:09:13.990Z,98461.56
2022-11-22T19:11:41.977Z,98467.13
2022-11-22T19:14:09.785Z,98466.09
2022-11-22T19:16:37.774Z,98465.91
2022-11-22T19:19:05.448Z,98466.97
2022-11-22T19:21:33.778Z,98465.69
2022-11-22T19:24:02.973Z,98469.47
2022-11-22T19:26:32.193Z,98465.00
2022-11-22T19:29:02.305Z,98462.53
2022-11-22T19:31:31.174Z,98466.69
2022-11-22T19:33:59.106Z,98467.53
2022-11-22T19:36:34.185Z,98474.03
2022-11-22T19:39:05.256Z,98468.69
2022-11-22T19:41:33.448Z,98461.41
2022-11-22T19:44:01.472Z,98471.72
2022-11-22T19:46:30.018Z,98469.03
2022-11-22T19:48:59.343Z,98471.13
2022-11-22T19:51:28.939Z,98475.50
2022-11-22T19:53:59.505Z,98483.31
2022-11-22T19:56:31.480Z,98477.81
2022-11-22T19:59:00.632Z,98486.44
2022-11-22T20:01:31.035Z,98483.00
2022-11-22T20:04:01.934Z,98489.97
2022-11-22T20:06:33.271Z,98481.97
2022-11-22T20:09:02.051Z,98486.13
2022-11-22T20:11:31.124Z,98488.19
2022-11-22T20:13:59.277Z,98493.75
2022-11-22T20:16:32.779Z,98495.81
2022-11-22T20:19:01.776Z,98495.59
2022-11-22T20:21:31.719Z,98500.25
2022-11-22T20:24:02.444Z,98504.78
2022-11-22T20:26:33.124Z,98501.75
2022-11-22T20:29:02.499Z,98500.31
2022-11-22T20:31:32.824Z,98511.16
2022-11-22T20:34:01.880Z,98520.19
2022-11-22T20:36:33.050Z,98513.16
2022-11-22T20:39:04.152Z,98522.00
2022-11-22T20:41:37.626Z,98522.25
2022-11-22T20:44:05.496Z,98530.44
2022-11-22T20:46:37.622Z,98541.53
2022-11-22T20:49:05.401Z,98544.41
2022-11-22T20:51:35.817Z,98547.69
2022-11-22T20:54:03.944Z,98554.84
2022-11-22T20:56:32.722Z,98552.81
2022-11-22T20:59:02.015Z,98553.81
2022-11-22T21:01:31.510Z,98556.09
2022-11-22T21:03:59.266Z,98556.13
2022-11-22T21:06:27.686Z,98562.25
2022-11-22T21:08:55.807Z,98554.88
2022-11-22T21:11:25.486Z,98567.16
2022-11-22T21:13:54.059Z,98575.97
2022-11-22T21:16:25.144Z,98571.47
2022-11-22T21:18:53.736Z,98573.09
2022-11-22T21:21:23.849Z,98580.03
2022-11-22T21:23:53.096Z,98573.28
2022-11-22T21:26:21.714Z,98583.72
2022-11-22T21:28:50.097Z,98583.53
2022-11-22T21:31:18.213Z,98572.69
2022-11-22T21:33:49.737Z,98573.88
2022-11-22T21:36:17.654Z,98573.47
2022-11-22T21:38:45.772Z,98578.78
2022-11-22T21:44:04.691Z,98575.34
2022-11-22T21:46:32.324Z,98575.94
2022-11-22T21:49:01.515Z,98568.34
2022-11-22T21:51:29.377Z,98580.47
2022-11-22T21:53:58.379Z,98574.94
2022-11-22T21:56:26.647Z,98574.72
2022-11-22T21:58:54.402Z,98583.75
2022-11-22T22:01:22.567Z,98579.44
2022-11-22T22:03:50.439Z,98590.50
2022-11-22T22:06:19.911Z,98589.88
2022-11-22T22:08:47.692Z,98590.09
2022-11-22T22:11:15.728Z,98586.81
2022-11-22T22:13:43.551Z,98589.91
2022-11-22T22:16:15.521Z,98596.88
2022-11-22T22:18:43.810Z,98594.19
2022-11-22T22:21:13.481Z,98599.94
2022-11-22T22:23:43.001Z,98588.03
2022-11-22T22:26:13.321Z,98599.72
2022-11-22T22:28:41.738Z,98591.72
2022-11-22T22:31:11.557Z,98593.34
2022-11-22T22:33:40.937Z,98601.97
2022-11-22T22:36:10.761Z,98599.91
2022-11-22T22:38:39.569Z,98600.47
2022-11-22T22:41:11.532Z,98600.06
2022-11-22T22:43:40.689Z,98599.84
2022-11-22T22:46:11.622Z,98606.00
2022-11-22T22:48:40.030Z,98603.72
2022-11-22T22:51:08.993Z,98615.81
2022-11-22T22:53:36.759Z,98607.41
2022-11-22T22:56:05.315Z,98609.25
2022-11-22T22:58:34.821Z,98611.50
2022-11-22T23:01:06.978Z,98611.22
2022-11-22T23:03:34.648Z,98599.56
2022-11-22T23:06:05.701Z,98601.97
2022-11-22T23:08:33.309Z,98606.69
2022-11-22T23:11:06.388Z,98614.09
2022-11-22T23:13:36.913Z,98618.38
2022-11-22T23:16:11.124Z,98618.56
2022-11-22T23:18:42.283Z,98615.09
2022-11-22T23:21:12.232Z,98609.97
2022-11-22T23:23:39.787Z,98618.78
2022-11-22T23:26:10.257Z,98609.38
2022-11-22T23:28:39.605Z,98612.84
2022-11-22T23:31:08.549Z,98605.19
2022-11-22T23:33:36.633Z,98613.81
2022-11-22T23:36:05.651Z,98613.06
2022-11-22T23:38:33.850Z,98616.94
2022-11-22T23:41:02.022Z,98622.28
2022-11-22T23:43:30.041Z,98621.44
2022-11-22T23:45:59.614Z,98623.66
2022-11-22T23:48:27.847Z,98628.41
2022-11-22T23:50:55.732Z,98622.25
2022-11-22T23:53:23.360Z,98616.47
2022-11-22T23:55:50.949Z,98624.47
2022-11-22T23:58:18.518Z,98617.25
